METAR Data
IDs: Format: Raw Decoded Include TAF

Data at: 2304 UTC 25 Oct 2021

KDRT 252253Z AUTO 12010KT 10SM CLR 34/20 A2985 RMK AO2 SLP097 T03440200
KDRT 252153Z AUTO 13010KT 10SM CLR 35/20 A2985 RMK AO2 SLP098 T03500200
KDRT 252053Z AUTO 13012G18KT 10SM CLR 35/20 A2987 RMK AO2 SLP102 T03500200 56028
KDRT 251953Z AUTO 13010KT 10SM CLR 34/21 A2988 RMK AO2 SLP108 T03390211
KDRT 251853Z AUTO 11008KT 10SM CLR 32/22 A2992 RMK AO2 SLP120 T03220217
KDRT 251753Z AUTO 12007KT 10SM CLR 31/22 A2995 RMK AO2 SLP132 T03060222 10311 20222 58006
KDRT 251653Z AUTO 12007KT 10SM SCT015 29/22 A2997 RMK AO2 SLP138 T02890222
KDRT 251649Z AUTO 15006KT 10SM SCT015 29/22 A2997 RMK AO2
KDRT 251553Z AUTO 13006KT 10SM OVC011 26/22 A2997 RMK AO2 SLP140 T02610217
KDRT 251505Z AUTO 13008KT 10SM OVC006 24/22 A2997 RMK AO2 CIG 004V009 T02440217
KDRT 251453Z AUTO 12006KT 10SM OVC004 24/22 A2997 RMK AO2 CIG 003V007 SLP139 T02440217 53020
KDRT 251420Z AUTO 11006KT 3SM BR OVC002 23/22 A2995 RMK AO2 T02330217
KDRT 251353Z AUTO 09006KT 1SM BR OVC002 23/22 A2994 RMK AO2 SLP128 T02280217
KDRT 251331Z AUTO 09007KT 1 3/4SM BR OVC003 23/21 A2993 RMK AO2 T02280211
KDRT 251319Z AUTO 10007KT 6SM BR BKN003 23/21 A2993 RMK AO2 T02280211
KDRT 251304Z AUTO 09008KT 9SM FEW004 23/21 A2992 RMK AO2 T02280211
KDRT 251253Z AUTO 09007KT 10SM CLR 23/21 A2992 RMK AO2 SLP123 T02280206
KDRT 251153Z AUTO 10SM CLR 22/20 A2991 RMK AO2 SLP117 T02220200 10239 20217 53003
KDRT 251053Z AUTO 08004KT 10SM CLR 22/19 A2990 RMK AO2 SLP113 T02170189
KDRT 250953Z AUTO 07003KT 10SM CLR 22/19 A2990 RMK AO2 SLP114 T02170189
KDRT 250853Z AUTO 00000KT 10SM CLR 23/19 A2990 RMK AO2 SLP114 T02330194 50002
KDRT 250753Z AUTO 14003KT 10SM CLR 23/19 A2991 RMK AO2 SLP117 T02330194
KDRT 250653Z AUTO 00000KT 10SM CLR 23/19 A2990 RMK AO2 SLP114 T02330194
KDRT 250553Z AUTO 12003KT 10SM CLR 23/19 A2990 RMK AO2 SLP114 T02330189 10317 20233 403440233 51015
KDRT 250453Z AUTO 00000KT 10SM CLR 25/19 A2989 RMK AO2 SLP113 T02500194
KDRT 250353Z AUTO 08003KT 10SM CLR 26/19 A2987 RMK AO2 SLP106 T02560194
KDRT 250253Z AUTO 09003KT 10SM CLR 27/19 A2985 RMK AO2 SLP099 T02670194 53018
KDRT 250153Z AUTO 11004KT 10SM CLR 28/19 A2983 RMK AO2 SLP090 T02830189
KDRT 250053Z AUTO 13006KT 10SM CLR 29/19 A2981 RMK AO2 SLP083 T02940189
KDRT 242353Z AUTO 12005KT 10SM CLR 32/19 A2980 RMK AO2 SLP079 T03170189 10344 20294 53004
KDRT 242253Z AUTO 14006KT 10SM CLR 33/18 A2979 RMK AO2 SLP076 T03330183
KDRT 242153Z AUTO VRB05KT 10SM CLR 34/18 A2979 RMK AO2 SLP074 T03390183
KDRT 242053Z AUTO 00000KT 10SM CLR 33/18 A2978 RMK AO2 SLP074 T03330183 56023
KDRT 241953Z AUTO VRB03KT 10SM CLR 33/19 A2979 RMK AO2 SLP077 T03280194
KDRT 241853Z AUTO VRB06KT 10SM CLR 31/20 A2982 RMK AO2 SLP088 T03060200
KDRT 241753Z AUTO 00000KT 10SM FEW028 30/21 A2985 RMK AO2 SLP098 T03000206 10300 20244 58004
KDRT 241653Z AUTO 16003KT 10SM SCT023 BKN030 28/21 A2987 RMK AO2 SLP104 T02780206
KDRT 241553Z AUTO VRB04KT 10SM BKN017 27/21 A2988 RMK AO2 SLP108 T02670211
KDRT 241539Z AUTO 00000KT 10SM SCT019 26/21 A2988 RMK AO2 T02610211
KDRT 241453Z AUTO 14005KT 10SM FEW012 BKN020 26/21 A2987 RMK AO2 SLP103 T02560211 53021
KDRT 241446Z AUTO 10004KT 10SM FEW012 BKN020 26/21 A2987 RMK AO2 T02560211
KDRT 241436Z AUTO 12003KT 10SM SCT020 26/21 A2987 RMK AO2 T02560211
KDRT 241353Z AUTO 12006KT 10SM BKN022 24/21 A2984 RMK AO2 SLP095 T02440211
KDRT 241346Z AUTO 12003KT 10SM SCT022 24/21 A2984 RMK AO2 T02440211
KDRT 241253Z AUTO 12007KT 10SM OVC023 24/21 A2981 RMK AO2 SLP085 T02440211
KDRT 241236Z AUTO 11007KT 10SM SCT012 OVC023 24/21 A2981 RMK AO2 T02440211
KDRT 241222Z AUTO 11007KT 10SM BKN013 OVC021 24/21 A2980 RMK AO2 T02440211
KDRT 241153Z AUTO 11007KT 10SM FEW013 OVC021 24/21 A2980 RMK AO2 SLP081 T02440211 10250 20239 53005
KDRT 241116Z AUTO 12009KT 10SM SCT013 OVC020 24/21 A2978 RMK AO2 T02440206